Custer, MT (59024)

1:10 AM MDT on October 01, 2016 (GMT -0600)
Billings Logan International | | Change Station

Elev 3570 ft 45.81 °N, 108.54 °W | Updated 17 minutes ago

Scattered Clouds
Scattered Clouds
64 °F
Feels Like 64 °F
N
0
Wind Variable Wind from North

Today
High -- | Low -- °F
--% Chance of Precip.
Yesterday
High -- | Low -- °F
Precip. -- in
Pressure 29.93 in
Visibility 10.0 miles
Clouds Scattered Clouds 11000 ft
Dew Point 47 °F
Humidity 54%
Rainfall 0.00 in
Snow Depth Not available.
7:09 AM 6:49 PM
New Moon, 0% visible
METAR KBIL 010653Z 00000KT 10SM SCT110 18/08 A3001 RMK AO2 SLP133 T01780083 402830161
Pressure 29.93 in
Visibility 10.0 miles
Clouds Scattered Clouds 11000 ft
Dew Point 47 °F
Humidity 54%
Rainfall 0.00 in
Snow Depth Not available.
7:09 AM 6:49 PM
New Moon, 0% visible
METAR KBIL 010653Z 00000KT 10SM SCT110 18/08 A3001 RMK AO2 SLP133 T01780083 402830161

10-Day Weather Forecast

Almanac

Astronomy

Oct. 01, 2016 Rise Set
Actual Time
Civil Twilight
Nautical Twilight
Astronomical Twilight
Moon
Length of Visible Light
Length of Day
Tomorrow will be .
, % of the Moon is Illuminated

Today's Extremes

State Highs State Lows

Community

WunderPhotos

Upload Photos

1,942,898 photos uploaded!

WunderBlog® & News

Nearby

Air Quality

  Air Quality AQ Index Pollutant
Not available.

Snow Depth

Station Depth Elevation

Earthquake Activity

City Distance Mag. Time & Date
Minimum magnitude displayed is 2.5.

Coastal Water Temperatures

Place Temperature

Stations

Nearby Weather Stations

Station Location Temp. Windchill Dew Point Humidity Wind Precip. Elev Updated Type
                   

Watches & Warnings

There are currently no watches in effect.